Canefield Airport

Fair
27oC (81oF)

Fair


Winds: South easterly @ 08kts / 15km/h

Humidity: 49%

Barometric Pressure: 1012 mb

Accumulated Rainfall for January: 28.8 mm

Updated: 17:00 local time (21:00 UTC)

Douglas-Charles Airport

Fair
20oC (68oF)

Fair


Winds: West north westerly @ 04kts / 07km/h

Humidity: 92%

Barometric Pressure: 1015 mb

Accumulated Rainfall for January: 76.6 mm

Updated: 20:00 local time (00:00 UTC)

Satellite Imagery

Satellite Imagery
Click image for larger view. (Source: National Hurricane Center).

Aviation Routine Report (METAR)

Douglas-Charles: METAR TDPD 250000Z 29004KT 9999 FEW019 20/19 Q1015=
Canefield: METAR TDCF 242100Z 13008KT 9999 FEW024 27/16 Q1012=